Time;durP1;ratioP1;P1;durP2;ratioP2;P2;SDS_P1;SDS_P2;PMS_P1;PMS_P2;Temp;Humidity;BMP_temperature;BMP_pressure;BME280_temperature;BME280_humidity;BME280_pressure;Samples;Min_cycle;Max_cycle;Signal;HPM_P1;HPM_P2
2021/01/07 00:00:43;;;;;;;15.45;9.95;;;2.10;79.20;;;;;;5001205;28;20073;-64
2021/01/07 00:03:09;;;;;;;16.33;9.50;;;2.10;79.20;;;;;;5016057;28;20121;-65
2021/01/07 00:05:35;;;;;;;14.23;9.38;;;2.20;79.20;;;;;;5001457;28;20193;-65
2021/01/07 00:08:01;;;;;;;16.42;9.60;;;2.20;79.00;;;;;;5001131;28;20035;-65
2021/01/07 00:10:26;;;;;;;14.70;9.32;;;2.20;79.10;;;;;;5000049;28;20029;-65
2021/01/07 00:12:53;;;;;;;15.93;9.77;;;2.20;79.00;;;;;;5000114;28;20041;-65
2021/01/07 00:15:19;;;;;;;15.80;9.40;;;2.20;79.00;;;;;;5000958;28;20030;-65
2021/01/07 00:17:44;;;;;;;15.52;9.73;;;2.20;79.00;;;;;;5000579;28;20108;-64
2021/01/07 00:20:11;;;;;;;16.40;9.68;;;2.20;79.10;;;;;;5000634;28;20502;-64
2021/01/07 00:22:37;;;;;;;14.27;9.27;;;2.20;79.00;;;;;;5000133;28;20069;-65
2021/01/07 00:25:07;;;;;;;13.68;8.90;;;2.20;79.00;;;;;;5001002;28;20442;-64
2021/01/07 00:27:33;;;;;;;13.55;8.32;;;2.20;79.00;;;;;;5001270;28;20561;-64
2021/01/07 00:29:59;;;;;;;13.07;8.68;;;2.20;78.80;;;;;;5000979;28;20116;-64
2021/01/07 00:32:25;;;;;;;13.65;9.05;;;2.30;79.00;;;;;;4999706;28;20042;-64
2021/01/07 00:34:51;;;;;;;14.57;9.13;;;2.30;79.00;;;;;;4998830;28;20409;-65
2021/01/07 00:37:16;;;;;;;14.55;8.90;;;2.30;78.90;;;;;;4999360;28;20417;-65
2021/01/07 00:39:42;;;;;;;16.55;9.32;;;2.30;78.80;;;;;;4998158;28;20039;-65
2021/01/07 00:42:08;;;;;;;14.95;9.20;;;2.30;78.70;;;;;;5000278;28;20030;-64
2021/01/07 00:44:33;;;;;;;14.98;8.80;;;2.30;79.50;;;;;;5000660;28;20030;-64
2021/01/07 00:46:59;;;;;;;15.10;9.18;;;2.30;78.70;;;;;;5001466;28;20030;-64
2021/01/07 00:49:24;;;;;;;14.68;8.50;;;2.30;78.80;;;;;;5001067;28;20038;-64
2021/01/07 00:51:50;;;;;;;14.65;8.63;;;2.30;78.70;;;;;;5001434;28;20065;-64
2021/01/07 00:54:18;;;;;;;12.98;8.60;;;2.30;78.70;;;;;;5000954;28;20038;-64
2021/01/07 00:56:44;;;;;;;13.43;8.32;;;2.20;78.50;;;;;;4998485;28;20050;-64
2021/01/07 00:59:09;;;;;;;13.75;8.60;;;2.30;78.60;;;;;;5000014;28;20698;-64
2021/01/07 01:01:48;;;;;;;14.20;9.25;;;2.30;78.50;;;;;;4999819;28;20408;-64
2021/01/07 01:04:15;;;;;;;13.88;8.05;;;2.30;78.50;;;;;;4999617;28;20525;-64
2021/01/07 01:06:41;;;;;;;13.95;8.90;;;2.20;78.50;;;;;;4999453;28;20045;-63
2021/01/07 01:09:09;;;;;;;15.13;9.38;;;2.20;78.50;;;;;;5000336;28;20077;-64
2021/01/07 01:11:45;;;;;;;14.98;8.38;;;2.20;78.60;;;;;;4999574;28;20120;-63
2021/01/07 01:14:15;;;;;;;15.73;8.48;;;2.20;78.70;;;;;;5000563;28;20027;-65
2021/01/07 01:16:41;;;;;;;15.20;8.48;;;2.20;78.80;;;;;;4999288;28;20042;-64
2021/01/07 01:19:07;;;;;;;13.43;8.52;;;2.10;78.70;;;;;;4999247;28;20034;-64
2021/01/07 01:21:33;;;;;;;13.05;8.32;;;2.10;78.60;;;;;;4999374;28;20410;-64
2021/01/07 01:24:00;;;;;;;14.75;8.55;;;2.20;78.60;;;;;;4999088;28;20513;-64
2021/01/07 01:26:26;;;;;;;13.07;8.15;;;2.20;78.60;;;;;;4999613;28;20034;-65
2021/01/07 01:28:51;;;;;;;15.02;8.85;;;2.10;78.50;;;;;;4998392;28;20080;-64
2021/01/07 01:31:17;;;;;;;13.75;8.73;;;2.20;78.60;;;;;;4998203;28;20092;-64
2021/01/07 01:33:42;;;;;;;15.05;9.15;;;2.10;78.50;;;;;;4998612;28;20444;-64
2021/01/07 01:36:09;;;;;;;14.20;8.90;;;2.10;78.50;;;;;;4999528;28;20034;-65
2021/01/07 01:38:34;;;;;;;15.50;9.30;;;2.10;78.50;;;;;;4999682;28;20080;-65
2021/01/07 01:41:04;;;;;;;13.43;8.35;;;2.10;78.50;;;;;;5000008;28;20042;-64
2021/01/07 01:43:30;;;;;;;13.48;8.25;;;2.10;78.60;;;;;;5000697;28;20060;-64
2021/01/07 01:45:56;;;;;;;15.52;8.88;;;2.10;78.50;;;;;;4999726;28;20633;-65
2021/01/07 01:48:25;;;;;;;14.82;8.80;;;2.10;78.60;;;;;;4999832;28;20046;-65
2021/01/07 01:50:50;;;;;;;13.32;8.25;;;2.10;78.60;;;;;;4999730;28;20040;-64
2021/01/07 01:53:16;;;;;;;14.07;8.57;;;2.00;78.60;;;;;;4998890;28;20046;-65
2021/01/07 01:55:42;;;;;;;14.85;8.85;;;2.10;78.60;;;;;;4999915;28;20037;-65
2021/01/07 01:58:11;;;;;;;12.05;7.95;;;2.10;78.60;;;;;;4997335;28;20038;-65
2021/01/07 02:00:36;;;;;;;14.50;8.65;;;2.10;78.70;;;;;;4996698;28;20033;-63
2021/01/07 02:03:11;;;;;;;13.68;8.25;;;2.10;78.60;;;;;;4997776;28;20038;-65
2021/01/07 02:05:38;;;;;;;;;;;2.20;78.80;;;;;;4997235;28;20030;-65
2021/01/07 02:08:05;;;;;;;16.30;8.55;;;2.20;78.80;;;;;;4998904;28;20312;-65
2021/01/07 02:10:34;;;;;;;14.57;8.10;;;2.20;78.50;;;;;;4996630;28;20041;-65
2021/01/07 02:13:02;;;;;;;12.68;7.82;;;2.20;78.50;;;;;;4998958;28;20037;-65
2021/01/07 02:15:28;;;;;;;13.52;8.00;;;2.20;79.30;;;;;;4999078;28;20034;-64
2021/01/07 02:17:56;;;;;;;13.52;8.52;;;2.20;78.40;;;;;;4999496;28;20041;-65
2021/01/07 02:20:24;;;;;;;14.82;8.82;;;2.20;78.40;;;;;;4998337;28;20045;-63
2021/01/07 02:22:54;;;;;;;13.95;8.48;;;2.20;78.40;;;;;;5003641;28;20035;-64
2021/01/07 02:25:20;;;;;;;13.93;8.63;;;2.20;78.30;;;;;;4998582;28;20038;-65
2021/01/07 02:27:45;;;;;;;16.27;9.68;;;2.20;78.40;;;;;;4998653;28;20057;-65
2021/01/07 02:30:12;;;;;;;15.02;9.73;;;2.20;78.30;;;;;;4997210;28;20414;-65
2021/01/07 02:32:37;;;;;;;17.80;9.75;;;2.20;78.30;;;;;;4997543;28;20038;-64
2021/01/07 02:35:04;;;;;;;14.93;9.48;;;2.20;78.30;;;;;;4999375;28;20064;-65
2021/01/07 02:37:29;;;;;;;16.35;9.65;;;2.20;78.30;;;;;;4997952;28;20060;-65
2021/01/07 02:39:55;;;;;;;18.15;10.30;;;2.20;78.30;;;;;;4997862;28;20038;-65
2021/01/07 02:42:20;;;;;;;16.35;9.73;;;2.20;78.30;;;;;;4996578;28;20035;-65
2021/01/07 02:44:46;;;;;;;17.05;10.48;;;2.20;78.30;;;;;;4997516;28;20030;-65
2021/01/07 02:47:12;;;;;;;17.13;10.35;;;2.20;78.50;;;;;;4998652;28;20386;-65
2021/01/07 02:49:37;;;;;;;17.80;10.43;;;2.20;78.40;;;;;;4998512;28;20514;-65
2021/01/07 02:52:03;;;;;;;17.23;10.55;;;2.20;78.40;;;;;;4998527;28;20039;-64
2021/01/07 02:54:29;;;;;;;18.00;10.65;;;2.20;78.60;;;;;;4998148;28;20038;-65
2021/01/07 02:56:55;;;;;;;19.10;11.15;;;2.20;78.60;;;;;;4998918;28;20038;-65
2021/01/07 02:59:20;;;;;;;17.63;10.20;;;2.20;78.60;;;;;;4998727;28;20506;-65
2021/01/07 03:01:46;;;;;;;19.10;10.95;;;2.10;78.50;;;;;;4998423;28;20049;-64
2021/01/07 03:04:11;;;;;;;18.48;11.30;;;2.10;78.50;;;;;;4997526;28;20588;-65
2021/01/07 03:06:37;;;;;;;19.23;10.38;;;2.10;78.60;;;;;;4999499;28;20565;-65
2021/01/07 03:09:04;;;;;;;18.52;10.65;;;2.10;78.60;;;;;;4997101;28;20034;-64
2021/01/07 03:11:29;;;;;;;16.88;9.77;;;2.10;78.60;;;;;;4999684;28;20124;-65
2021/01/07 03:13:55;;;;;;;19.20;11.27;;;2.10;78.60;;;;;;4998529;28;20113;-65
2021/01/07 03:16:21;;;;;;;19.70;11.20;;;2.20;78.70;;;;;;4998588;28;20034;-67
2021/01/07 03:18:46;;;;;;;18.95;10.73;;;2.20;78.60;;;;;;4996862;28;20035;-65
2021/01/07 03:21:12;;;;;;;20.88;11.50;;;2.10;78.60;;;;;;4998033;28;20037;-65
2021/01/07 03:23:37;;;;;;;19.65;10.93;;;2.10;78.60;;;;;;4997625;28;20717;-65
2021/01/07 03:26:03;;;;;;;21.65;11.88;;;2.10;78.60;;;;;;4999476;28;20088;-64
2021/01/07 03:28:29;;;;;;;21.00;11.90;;;2.10;78.70;;;;;;4997543;28;20035;-64
2021/01/07 03:30:54;;;;;;;19.67;11.35;;;2.10;78.70;;;;;;4997969;28;20116;-64
2021/01/07 03:33:20;;;;;;;21.90;11.23;;;2.10;78.60;;;;;;4998294;28;20074;-64
2021/01/07 03:35:46;;;;;;;19.10;11.40;;;2.10;78.70;;;;;;4997875;28;20510;-64
2021/01/07 03:38:12;;;;;;;22.30;11.90;;;2.10;78.80;;;;;;4997484;28;20049;-64
2021/01/07 03:40:37;;;;;;;22.10;11.95;;;2.10;78.80;;;;;;4998444;28;20569;-63
2021/01/07 03:43:03;;;;;;;20.70;11.65;;;2.10;78.80;;;;;;4999320;28;20176;-64
2021/01/07 03:45:29;;;;;;;20.63;11.65;;;2.10;78.80;;;;;;4998447;28;20026;-63
2021/01/07 03:47:55;;;;;;;22.38;11.88;;;2.10;78.80;;;;;;4997622;28;20053;-64
2021/01/07 03:50:21;;;;;;;19.95;11.00;;;2.10;78.80;;;;;;4998060;28;20502;-64
2021/01/07 03:52:46;;;;;;;21.00;12.13;;;2.10;78.80;;;;;;5001810;28;20045;-64
2021/01/07 03:55:12;;;;;;;21.33;12.00;;;2.10;78.80;;;;;;5001086;28;20045;-64
2021/01/07 03:57:38;;;;;;;21.25;11.73;;;2.10;78.90;;;;;;5001105;28;20043;-64
2021/01/07 04:00:05;;;;;;;21.02;11.77;;;2.00;78.90;;;;;;5000708;28;20030;-64
2021/01/07 04:02:31;;;;;;;21.65;12.43;;;2.00;79.00;;;;;;5000607;28;20033;-64
2021/01/07 04:04:56;;;;;;;21.73;12.32;;;2.00;79.00;;;;;;5000413;28;20039;-65
2021/01/07 04:07:22;;;;;;;23.05;11.93;;;2.00;79.00;;;;;;5001433;28;20034;-64
2021/01/07 04:09:47;;;;;;;23.70;12.60;;;2.00;79.00;;;;;;5000512;28;20045;-64
2021/01/07 04:12:13;;;;;;;21.80;12.52;;;2.00;79.00;;;;;;5000473;28;20046;-64
2021/01/07 04:14:39;;;;;;;25.00;12.95;;;2.00;79.00;;;;;;5000127;28;20030;-64
2021/01/07 04:17:04;;;;;;;22.13;12.43;;;2.10;79.10;;;;;;5001047;28;20125;-64
2021/01/07 04:19:30;;;;;;;23.38;12.88;;;2.00;79.00;;;;;;5000858;28;20418;-64
2021/01/07 04:21:56;;;;;;;23.52;13.35;;;2.00;79.10;;;;;;4999844;28;20033;-64
2021/01/07 04:24:21;;;;;;;22.23;12.82;;;2.00;79.00;;;;;;5001078;28;20096;-65
2021/01/07 04:26:47;;;;;;;23.63;12.70;;;2.00;79.10;;;;;;5000496;28;20035;-65
2021/01/07 04:29:13;;;;;;;25.52;13.50;;;2.10;79.20;;;;;;4999545;28;20490;-64
2021/01/07 04:31:39;;;;;;;25.20;13.80;;;2.10;79.20;;;;;;5000025;28;20121;-64
2021/01/07 04:34:05;;;;;;;27.00;13.75;;;2.10;79.20;;;;;;5001502;28;20041;-64
2021/01/07 04:36:33;;;;;;;23.20;13.43;;;2.10;79.20;;;;;;5000942;28;20038;-64
2021/01/07 04:38:58;;;;;;;25.85;13.30;;;2.10;79.20;;;;;;5000489;28;20073;-63
2021/01/07 04:41:24;;;;;;;24.23;13.55;;;2.10;79.20;;;;;;5000960;28;20061;-64
2021/01/07 04:43:59;;;;;;;23.60;13.07;;;2.10;80.00;;;;;;5000120;28;20493;-64
2021/01/07 04:46:26;;;;;;;24.23;13.13;;;2.00;79.20;;;;;;5000592;28;20593;-63
2021/01/07 04:48:52;;;;;;;27.13;14.32;;;2.10;79.20;;;;;;4999329;28;20084;-64
2021/01/07 04:51:18;;;;;;;26.50;13.52;;;2.10;79.20;;;;;;5001376;28;20116;-64
2021/01/07 04:53:44;;;;;;;27.42;13.45;;;2.10;79.20;;;;;;5000304;28;20482;-64
2021/01/07 04:56:11;;;;;;;28.40;14.75;;;2.10;79.20;;;;;;5000677;28;20034;-64
2021/01/07 04:58:36;;;;;;;27.80;14.48;;;2.10;79.20;;;;;;4999020;28;20064;-64
2021/01/07 05:01:02;;;;;;;26.65;13.65;;;2.10;79.30;;;;;;5000925;28;20066;-65
2021/01/07 05:03:33;;;;;;;27.27;14.15;;;2.10;80.10;;;;;;4999639;28;20034;-64
2021/01/07 05:05:59;;;;;;;28.73;14.88;;;2.10;79.20;;;;;;5000144;28;20042;-64
2021/01/07 05:08:25;;;;;;;28.75;14.35;;;2.20;79.20;;;;;;4999793;28;20030;-64
2021/01/07 05:10:51;;;;;;;27.15;14.10;;;2.20;79.20;;;;;;5000729;28;20038;-64
2021/01/07 05:13:17;;;;;;;27.45;14.88;;;2.20;79.10;;;;;;5000529;28;20030;-63
2021/01/07 05:15:43;;;;;;;26.48;14.27;;;2.30;79.20;;;;;;4999629;28;20057;-64
2021/01/07 05:18:09;;;;;;;27.30;13.90;;;2.20;79.00;;;;;;4999675;28;20108;-64
2021/01/07 05:20:35;;;;;;;27.73;14.45;;;2.30;79.00;;;;;;5014100;28;20029;-64
2021/01/07 05:23:02;;;;;;;82.60;37.08;;;2.30;79.00;;;;;;4999894;28;20113;-64
2021/01/07 05:25:31;;;;;;;45.80;23.52;;;2.30;78.90;;;;;;5000063;28;20083;-64
2021/01/07 05:28:02;;;;;;;32.38;16.77;;;2.30;78.70;;;;;;4999540;28;20453;-65
2021/01/07 05:30:30;;;;;;;29.13;14.65;;;2.30;78.60;;;;;;4999935;28;20040;-64
2021/01/07 05:33:19;;;;;;;28.70;14.02;;;2.30;78.50;;;;;;4999770;28;20437;-64
2021/01/07 05:35:44;;;;;;;29.73;15.50;;;2.30;78.50;;;;;;5000848;28;20034;-64
2021/01/07 05:38:10;;;;;;;29.38;14.63;;;2.30;78.50;;;;;;4999349;28;20038;-64
2021/01/07 05:40:36;;;;;;;28.45;14.50;;;2.30;78.40;;;;;;4998560;28;20046;-64
2021/01/07 05:43:09;;;;;;;29.00;15.23;;;2.20;78.20;;;;;;4999199;28;20030;-64
2021/01/07 05:45:36;;;;;;;34.10;16.60;;;2.20;78.20;;;;;;4999110;28;20134;-64
2021/01/07 05:48:03;;;;;;;31.60;15.88;;;2.20;78.20;;;;;;5014286;28;20040;-64
2021/01/07 05:50:36;;;;;;;34.65;17.48;;;2.10;78.10;;;;;;4997891;28;20092;-64
2021/01/07 05:53:03;;;;;;;35.92;18.13;;;2.10;78.30;;;;;;4999827;28;20044;-64
2021/01/07 05:55:29;;;;;;;29.95;15.65;;;2.10;78.30;;;;;;4999652;28;20057;-64
2021/01/07 05:58:00;;;;;;;33.95;16.75;;;2.00;78.30;;;;;;5000074;28;20034;-64
2021/01/07 06:00:30;;;;;;;32.25;16.25;;;2.00;78.50;;;;;;4998460;28;20034;-64
2021/01/07 06:02:58;;;;;;;29.60;14.93;;;2.00;78.60;;;;;;4999513;28;20110;-64
2021/01/07 06:05:25;;;;;;;33.70;15.88;;;2.00;78.60;;;;;;4999448;28;20034;-63
2021/01/07 06:07:54;;;;;;;28.40;14.02;;;2.00;78.70;;;;;;4999270;28;20125;-64
2021/01/07 06:10:21;;;;;;;33.03;15.57;;;1.90;78.70;;;;;;5000870;28;20073;-64
2021/01/07 06:12:47;;;;;;;32.30;15.55;;;2.00;78.90;;;;;;4997604;28;20042;-64
2021/01/07 06:15:16;;;;;;;31.60;15.80;;;2.00;79.00;;;;;;4998186;28;20041;-62
2021/01/07 06:17:42;;;;;;;32.50;15.93;;;2.00;79.00;;;;;;4999215;28;20038;-64
2021/01/07 06:20:12;;;;;;;29.58;14.82;;;2.00;79.00;;;;;;4999695;28;20723;-64
2021/01/07 06:22:40;;;;;;;34.45;16.13;;;2.00;79.10;;;;;;4997067;28;20414;-64
2021/01/07 06:25:11;;;;;;;35.65;17.00;;;2.00;79.10;;;;;;4997873;28;20037;-64
2021/01/07 06:27:40;;;;;;;33.50;16.92;;;2.00;79.10;;;;;;4997905;28;20486;-64
2021/01/07 06:30:06;;;;;;;35.38;17.02;;;2.00;79.10;;;;;;4998550;28;20041;-64
2021/01/07 06:32:31;;;;;;;32.83;17.08;;;2.00;79.00;;;;;;4998546;28;20526;-65
2021/01/07 06:34:58;;;;;;;36.75;18.05;;;2.00;79.00;;;;;;4997707;28;20043;-64
2021/01/07 06:37:33;;;;;;;33.78;16.90;;;2.00;79.00;;;;;;4999072;28;20473;-64
2021/01/07 06:40:00;;;;;;;34.47;17.20;;;2.00;79.20;;;;;;4998571;28;20062;-64
2021/01/07 06:42:28;;;;;;;37.30;18.35;;;2.00;79.20;;;;;;4998329;28;20435;-65
2021/01/07 06:44:56;;;;;;;37.63;18.45;;;2.00;79.20;;;;;;4998748;28;20113;-64
2021/01/07 06:47:22;;;;;;;38.92;18.58;;;2.00;79.20;;;;;;5013995;28;20041;-64
2021/01/07 06:49:49;;;;;;;34.53;17.92;;;2.00;79.10;;;;;;4998714;28;20030;-64
2021/01/07 06:52:15;;;;;;;39.72;19.30;;;2.00;79.20;;;;;;4999106;28;20031;-64
2021/01/07 06:54:46;;;;;;;37.58;17.35;;;2.00;79.20;;;;;;4998484;28;20045;-64
2021/01/07 06:57:15;;;;;;;36.78;18.38;;;2.10;79.30;;;;;;4998961;28;20113;-63
2021/01/07 06:59:59;;;;;;;33.40;16.30;;;2.10;79.30;;;;;;4997359;28;20386;-65
2021/01/07 07:02:25;;;;;;;36.97;17.17;;;2.10;78.60;;;;;;5010108;28;20030;-65
2021/01/07 07:05:07;;;;;;;43.15;19.80;;;2.10;79.20;;;;;;4998348;28;20521;-64
2021/01/07 07:07:38;;;;;;;36.75;17.45;;;2.10;79.30;;;;;;4997902;28;20401;-63
2021/01/07 07:10:19;;;;;;;33.20;17.13;;;2.10;79.20;;;;;;4998100;28;20084;-64
2021/01/07 07:12:52;;;;;;;42.85;19.55;;;2.10;79.20;;;;;;4994690;28;20116;-64
2021/01/07 07:15:22;;;;;;;39.80;18.80;;;2.10;79.20;;;;;;4996598;28;20046;-64
2021/01/07 07:17:49;;;;;;;48.08;20.63;;;2.20;79.20;;;;;;4987991;28;20367;-64
2021/01/07 07:20:18;;;;;;;47.25;20.90;;;2.10;79.20;;;;;;4974905;28;20042;-65
2021/01/07 07:22:46;;;;;;;36.95;18.17;;;2.20;79.20;;;;;;4988792;28;20034;-64
2021/01/07 07:25:17;;;;;;;34.55;16.90;;;2.20;79.20;;;;;;4993637;28;20096;-64
2021/01/07 07:27:51;;;;;;;33.03;17.00;;;2.20;79.20;;;;;;4998559;28;20038;-65
2021/01/07 07:30:25;;;;;;;31.35;16.73;;;2.20;79.20;;;;;;4997225;28;20038;-64
2021/01/07 07:32:51;;;;;;;;;;;2.20;79.10;;;;;;4999167;28;20050;-65
2021/01/07 07:35:28;;;;;;;35.80;16.55;;;2.30;79.20;;;;;;4997694;28;19968;-64
2021/01/07 07:37:54;;;;;;;33.20;16.00;;;2.30;79.00;;;;;;4997407;28;20045;-65
2021/01/07 07:40:43;;;;;;;29.45;16.08;;;2.30;78.90;;;;;;4999160;28;20149;-65
2021/01/07 07:43:09;;;;;;;33.45;15.75;;;2.30;78.90;;;;;;4996551;28;20117;-65
2021/01/07 07:45:40;;;;;;;32.38;15.77;;;2.30;78.90;;;;;;4995606;28;20041;-65
2021/01/07 07:48:08;;;;;;;33.03;15.75;;;2.40;79.00;;;;;;4996941;28;20114;-65
2021/01/07 07:50:34;;;;;;;34.50;16.55;;;2.40;78.90;;;;;;4998227;28;20041;-64
2021/01/07 07:53:07;;;;;;;33.13;16.63;;;2.40;78.90;;;;;;5093496;23;20584;-67
2021/01/07 07:55:37;;;;;;;35.42;17.25;;;2.40;79.00;;;;;;5054768;23;20042;-64
2021/01/07 07:58:13;;;;;;;34.40;18.27;;;2.40;78.90;;;;;;4998573;28;20037;-65
2021/01/07 08:00:48;;;;;;;36.47;17.40;;;2.40;78.80;;;;;;4998485;28;20038;-64
2021/01/07 08:03:19;;;;;;;33.08;16.13;;;2.40;78.80;;;;;;4993613;28;20030;-65
2021/01/07 08:05:46;;;;;;;32.22;15.02;;;2.50;78.70;;;;;;5001993;28;20061;-64
2021/01/07 08:08:30;;;;;;;32.42;16.25;;;2.50;79.40;;;;;;5001588;28;20034;-65
2021/01/07 08:10:57;;;;;;;34.15;16.98;;;2.50;78.50;;;;;;4996599;28;20117;-64
2021/01/07 08:13:25;;;;;;;34.20;16.45;;;2.50;78.50;;;;;;4999244;28;20031;-64
2021/01/07 08:15:52;;;;;;;47.95;21.20;;;2.50;78.60;;;;;;5001056;28;20125;-64
2021/01/07 08:18:22;;;;;;;34.15;16.77;;;2.50;78.60;;;;;;4998835;28;20030;-65
2021/01/07 08:20:51;;;;;;;38.13;20.10;;;2.40;79.40;;;;;;4998914;28;20046;-65
2021/01/07 08:23:17;;;;;;;36.38;18.45;;;2.40;78.60;;;;;;5000709;28;20065;-64
2021/01/07 08:25:51;;;;;;;34.60;17.63;;;2.40;78.70;;;;;;5002112;28;20034;-64
2021/01/07 08:28:31;;;;;;;31.83;16.33;;;2.40;78.80;;;;;;5000628;28;20247;-65
2021/01/07 08:31:09;;;;;;;34.92;18.65;;;2.40;78.90;;;;;;4997074;28;20896;-65
2021/01/07 08:33:35;;;;;;;31.95;16.67;;;2.40;79.00;;;;;;4995422;28;20068;-65
2021/01/07 08:36:20;;;;;;;31.65;16.23;;;2.40;79.10;;;;;;4998257;28;20529;-65
2021/01/07 08:38:52;;;;;;;32.92;16.33;;;2.40;79.20;;;;;;4997683;28;20060;-65
2021/01/07 08:41:20;;;;;;;31.83;15.68;;;2.40;79.00;;;;;;4999906;28;20621;-65
2021/01/07 08:43:47;;;;;;;33.72;16.08;;;2.40;79.00;;;;;;5000786;28;20065;-64
2021/01/07 08:46:18;;;;;;;30.88;15.98;;;2.40;79.00;;;;;;4999680;28;20053;-65
2021/01/07 08:48:56;;;;;;;35.60;18.13;;;2.40;79.00;;;;;;5000168;28;20034;-65
2021/01/07 08:51:22;;;;;;;35.97;16.98;;;2.40;79.00;;;;;;5000638;28;20048;-65
2021/01/07 08:53:52;;;;;;;32.60;16.60;;;2.40;78.90;;;;;;5000411;28;20034;-65
2021/01/07 08:56:33;;;;;;;32.15;15.88;;;2.50;78.90;;;;;;4998628;28;20030;-65
2021/01/07 08:59:19;;;;;;;30.70;15.68;;;2.50;79.10;;;;;;4997011;28;20069;-65
2021/01/07 09:01:45;;;;;;;30.58;15.27;;;2.50;79.10;;;;;;4999412;28;20772;-65
2021/01/07 09:04:36;;;;;;;35.88;16.98;;;2.50;79.10;;;;;;4998882;28;20029;-66
2021/01/07 09:07:04;;;;;;;32.17;16.65;;;2.50;79.10;;;;;;4998206;28;20057;-66
2021/01/07 09:09:40;;;;;;;34.75;17.52;;;2.60;79.10;;;;;;5000290;28;20030;-66
2021/01/07 09:12:16;;;;;;;33.80;17.05;;;2.60;79.00;;;;;;4996997;28;20088;-65
2021/01/07 09:14:51;;;;;;;32.72;15.48;;;2.70;79.00;;;;;;4999211;28;20054;-65
2021/01/07 09:17:19;;;;;;;35.75;17.23;;;2.70;79.00;;;;;;5000114;28;20062;-65
2021/01/07 09:19:46;;;;;;;34.85;17.20;;;2.70;78.90;;;;;;4999035;28;20038;-65
2021/01/07 09:22:24;;;;;;;33.92;17.40;;;2.70;78.80;;;;;;4999950;28;20037;-65
2021/01/07 09:24:51;;;;;;;35.72;18.45;;;2.70;78.90;;;;;;5000126;28;20062;-65
2021/01/07 09:27:20;;;;;;;33.25;16.73;;;2.80;79.00;;;;;;5000779;28;20382;-65
2021/01/07 09:29:46;;;;;;;29.48;16.02;;;2.80;79.00;;;;;;4999755;28;20038;-65
2021/01/07 09:32:13;;;;;;;30.27;15.85;;;2.80;79.00;;;;;;4997738;28;20104;-65
2021/01/07 09:34:42;;;;;;;34.03;17.15;;;2.80;79.00;;;;;;4998884;28;20030;-66
2021/01/07 09:37:10;;;;;;;34.35;16.75;;;2.80;79.00;;;;;;4999976;28;20041;-65
2021/01/07 09:39:36;;;;;;;36.63;17.05;;;2.80;78.90;;;;;;5001301;28;20422;-65
2021/01/07 09:42:03;;;;;;;37.85;17.25;;;2.90;79.90;;;;;;4999015;28;20041;-65
2021/01/07 09:44:29;;;;;;;32.28;15.70;;;2.90;79.20;;;;;;4998968;28;20026;-65
2021/01/07 09:46:56;;;;;;;32.85;16.67;;;2.90;80.00;;;;;;5000306;28;20029;-65
2021/01/07 09:49:24;;;;;;;32.13;16.70;;;3.00;79.20;;;;;;4998388;28;20048;-65
2021/01/07 09:51:50;;;;;;;34.03;15.82;;;3.00;79.10;;;;;;4999578;28;20034;-65
2021/01/07 09:54:16;;;;;;;28.98;15.48;;;3.00;79.10;;;;;;5000107;28;20080;-65
2021/01/07 09:56:42;;;;;;;33.20;15.88;;;3.10;79.10;;;;;;4999804;28;20053;-65
2021/01/07 09:59:08;;;;;;;31.90;15.88;;;3.10;79.00;;;;;;4998740;28;20107;-65
2021/01/07 10:01:33;;;;;;;32.80;16.02;;;3.20;78.70;;;;;;5001285;28;20475;-65
2021/01/07 10:03:59;;;;;;;33.97;16.13;;;3.20;78.60;;;;;;5000310;28;20057;-65
2021/01/07 10:06:25;;;;;;;28.75;14.55;;;3.20;78.40;;;;;;4999705;28;20117;-64
2021/01/07 10:08:51;;;;;;;30.50;14.80;;;3.20;78.30;;;;;;4999801;28;20030;-65
2021/01/07 10:11:16;;;;;;;28.83;14.35;;;3.20;78.10;;;;;;4999118;28;20600;-65
2021/01/07 10:13:42;;;;;;;31.40;15.00;;;3.20;78.10;;;;;;4999668;28;20043;-65
2021/01/07 10:16:12;;;;;;;33.67;15.43;;;3.10;78.00;;;;;;5000426;28;20030;-65
2021/01/07 10:18:38;;;;;;;29.92;15.77;;;3.20;77.80;;;;;;4999025;28;20034;-66
2021/01/07 10:21:07;;;;;;;30.65;14.38;;;3.10;77.90;;;;;;4999805;28;20033;-65
2021/01/07 10:23:35;;;;;;;27.73;14.40;;;3.10;78.00;;;;;;5000115;28;20041;-65
2021/01/07 10:26:01;;;;;;;30.23;14.60;;;3.20;78.00;;;;;;5000930;28;20034;-65
2021/01/07 10:28:27;;;;;;;32.13;16.48;;;3.20;78.00;;;;;;4999995;28;20034;-66
2021/01/07 10:30:53;;;;;;;28.10;14.55;;;3.20;77.80;;;;;;5000013;28;20048;-65
2021/01/07 10:33:20;;;;;;;27.63;14.60;;;3.20;77.90;;;;;;4999859;28;20034;-65
2021/01/07 10:35:46;;;;;;;31.75;14.93;;;3.20;78.00;;;;;;4997585;28;20046;-65
2021/01/07 10:38:16;;;;;;;32.58;15.27;;;3.20;78.20;;;;;;4998039;28;20030;-65
2021/01/07 10:40:45;;;;;;;29.80;14.82;;;3.30;79.30;;;;;;4998746;28;20452;-65
2021/01/07 10:43:14;;;;;;;27.00;13.05;;;3.40;78.60;;;;;;5000392;28;20498;-65
2021/01/07 10:45:40;;;;;;;26.92;13.65;;;3.40;78.50;;;;;;4999799;28;20184;-65
2021/01/07 10:48:13;;;;;;;28.75;13.82;;;3.50;78.30;;;;;;5000565;28;20140;-65
2021/01/07 10:50:42;;;;;;;23.40;12.45;;;3.60;78.30;;;;;;4998848;28;20031;-65
2021/01/07 10:53:27;;;;;;;22.85;12.15;;;3.60;78.20;;;;;;5000859;28;20084;-65
2021/01/07 10:55:58;;;;;;;25.77;12.53;;;3.70;78.10;;;;;;5000556;28;20037;-65
2021/01/07 10:59:07;;;;;;;26.33;13.52;;;3.80;78.00;;;;;;5000179;28;20061;-65
2021/01/07 11:01:44;;;;;;;23.73;12.32;;;3.90;77.90;;;;;;4968068;28;20035;-65
2021/01/07 11:04:19;;;;;;;24.85;12.35;;;3.90;77.80;;;;;;4998130;28;20587;-65
2021/01/07 11:07:00;;;;;;;22.88;11.98;;;4.00;77.80;;;;;;5002727;28;20035;-65
2021/01/07 11:09:32;;;;;;;25.75;12.70;;;4.00;77.40;;;;;;5002923;28;20402;-66
2021/01/07 11:12:04;;;;;;;23.73;12.63;;;4.10;77.30;;;;;;5002161;28;20038;-65
2021/01/07 11:14:42;;;;;;;23.83;12.55;;;4.20;77.90;;;;;;5002646;28;20030;-65
2021/01/07 11:17:16;;;;;;;20.90;11.27;;;4.20;76.60;;;;;;5003252;28;20124;-65
2021/01/07 11:19:47;;;;;;;23.33;12.85;;;4.20;76.40;;;;;;4986198;28;20054;-64
2021/01/07 11:22:29;;;;;;;25.27;12.85;;;4.20;76.40;;;;;;5002906;28;20038;-66
2021/01/07 11:24:55;;;;;;;22.17;12.43;;;4.20;75.90;;;;;;5003228;28;20113;-65
2021/01/07 11:27:25;;;;;;;21.98;12.05;;;4.10;75.90;;;;;;5001621;28;20572;-65
2021/01/07 11:29:54;;;;;;;23.98;12.13;;;4.10;75.90;;;;;;5003358;28;20662;-66
2021/01/07 11:32:21;;;;;;;20.80;11.48;;;4.00;76.00;;;;;;5002797;28;20074;-66
2021/01/07 11:34:47;;;;;;;22.30;11.52;;;4.00;75.90;;;;;;5002230;28;20069;-66
2021/01/07 11:37:57;;;;;;;22.38;11.82;;;4.00;75.80;;;;;;5002439;28;20038;-66
2021/01/07 11:40:34;;;;;;;23.60;11.90;;;4.00;75.60;;;;;;4959537;28;20031;-66
2021/01/07 11:43:13;;;;;;;21.58;10.93;;;3.90;75.70;;;;;;4943066;28;20043;-66
2021/01/07 11:45:40;;;;;;;20.80;11.00;;;4.00;75.70;;;;;;4988422;28;20034;-66
2021/01/07 11:48:08;;;;;;;23.23;12.10;;;3.90;75.90;;;;;;5000457;28;20398;-66
2021/01/07 11:50:43;;;;;;;25.70;13.32;;;3.90;76.00;;;;;;5001535;28;20034;-66
2021/01/07 11:53:09;;;;;;;23.10;13.07;;;3.90;75.70;;;;;;5002711;28;20638;-66
2021/01/07 11:55:36;;;;;;;23.88;12.65;;;3.90;75.90;;;;;;5002227;28;20038;-66
2021/01/07 11:58:03;;;;;;;25.15;13.10;;;3.90;75.90;;;;;;5001937;28;20042;-66
2021/01/07 12:00:31;;;;;;;27.35;14.00;;;3.90;75.70;;;;;;5000588;28;20037;-65
2021/01/07 12:02:56;;;;;;;26.35;13.25;;;3.90;75.80;;;;;;5002262;28;20034;-66
2021/01/07 12:05:24;;;;;;;27.13;13.93;;;3.90;75.70;;;;;;5001786;28;20026;-66
2021/01/07 12:08:08;;;;;;;28.77;14.38;;;3.80;76.60;;;;;;4997443;28;20263;-66
2021/01/07 12:10:40;;;;;;;23.67;12.82;;;3.80;75.70;;;;;;4998334;28;20037;-65
2021/01/07 12:13:36;;;;;;;23.63;12.10;;;3.80;75.70;;;;;;4996516;28;20030;-66
2021/01/07 12:16:03;;;;;;;27.05;13.20;;;3.80;75.60;;;;;;5001645;28;20034;-66
2021/01/07 12:18:29;;;;;;;23.02;12.63;;;3.80;75.80;;;;;;5000430;28;20040;-65
2021/01/07 12:20:56;;;;;;;26.73;13.25;;;3.70;75.80;;;;;;5015715;28;20322;-65
2021/01/07 12:23:24;;;;;;;26.05;13.25;;;3.80;76.10;;;;;;5001714;28;20200;-66
2021/01/07 12:25:51;;;;;;;25.02;12.50;;;3.70;76.20;;;;;;5001388;28;20064;-65
2021/01/07 12:28:18;;;;;;;24.83;12.48;;;3.80;76.10;;;;;;5001409;28;20061;-65
2021/01/07 12:30:46;;;;;;;26.70;13.30;;;3.80;76.00;;;;;;5001246;28;20053;-65
2021/01/07 12:33:27;;;;;;;29.80;13.10;;;3.80;76.00;;;;;;5001940;28;20034;-66
2021/01/07 12:36:06;;;;;;;24.50;12.55;;;3.80;75.90;;;;;;5001537;28;20030;-65
2021/01/07 12:38:56;;;;;;;25.88;12.80;;;3.80;75.70;;;;;;5001522;28;20037;-65
2021/01/07 12:41:30;;;;;;;24.25;12.25;;;3.80;75.60;;;;;;5001590;28;20029;-65
2021/01/07 12:43:58;;;;;;;24.80;12.77;;;3.80;75.90;;;;;;5002563;28;20433;-65
2021/01/07 12:46:29;;;;;;;26.08;13.18;;;3.80;75.90;;;;;;5001690;28;20044;-65
2021/01/07 12:48:57;;;;;;;24.33;12.23;;;3.80;75.90;;;;;;5002541;28;20590;-65